»·PEaware :: AAL3227 KSEA-KOTH

AAL3227 :: KSEA-KOTH

FLIGHT INFORMATION

Flight Status: Arrived
Operator:
American Airlines
More flights by this operator :: More flights under this callsign
Pilot: Anonymous 18910 (18910)
Aircraft: AIRBUS A320
(A320)
More flights by this aircraft type
Origin: KSEA Seattle-Tacoma Intl
United States
Destination: KOTH North Bend Mun
United States
More flights between these airports :: More routes between these airports
Route: HAROB6 HISKU EUG V121 OTH
File this flight plan on PilotEdge
Remarks:
Altitude:
(Current/Filed)
27,000ft
Speed:
(Current/Filed)
350kts
Departed: 17-Jul-18 09:40 PM
Arrived: 17-Jul-18 10:37 PM
Distance/Time
Traveled:
255nm/0:57
Distance/Time
To Go:
Arrived

Flight Plot

Page will automatically refresh every two minutes.

Flight plan parsing failed; only flown route is shown


Map Options




Map Legend


Flown Route
Filed Route
Departure Airport
Arrival Airport
Navaid (VOR, NDB)
Fix

Horizontal Profiles

Position Reports

Time Latitude Longitude Heading Altitude Ground
Speed
17-Jul-18 21:26 47.440112 -122.298739 47 442ft 0kts
17-Jul-18 21:27 47.440112 -122.298739 47 442ft 0kts
17-Jul-18 21:28 47.440112 -122.298739 47 442ft 0kts
17-Jul-18 21:29 47.440112 -122.298739 47 442ft 0kts
17-Jul-18 21:30 47.440112 -122.298739 47 442ft 0kts
17-Jul-18 21:31 47.440112 -122.298739 47 442ft 0kts
17-Jul-18 21:32 47.440112 -122.298740 47 442ft 0kts
17-Jul-18 21:33 47.439855 -122.299148 33 442ft 2kts
17-Jul-18 21:34 47.439567 -122.299062 318 442ft 0kts
17-Jul-18 21:35 47.439567 -122.299063 318 442ft 0kts
17-Jul-18 21:36 47.440031 -122.303124 247 442ft 12kts
17-Jul-18 21:37 47.442219 -122.306348 0 442ft 29kts
17-Jul-18 21:38 47.451341 -122.306230 2 442ft 31kts
17-Jul-18 21:39 47.458557 -122.306269 359 442ft 27kts
17-Jul-18 21:40 47.463740 -122.306763 254 442ft 10kts
17-Jul-18 21:41 47.443582 -122.307905 181 588ft 180kts
17-Jul-18 21:42 47.384189 -122.307475 183 3029ft 254kts
17-Jul-18 21:43 47.316568 -122.335009 213 6382ft 273kts
17-Jul-18 21:44 47.249693 -122.391989 212 9726ft 286kts
17-Jul-18 21:45 47.177721 -122.453735 212 11568ft 342kts
17-Jul-18 21:46 47.131809 -122.576117 279 12602ft 392kts
17-Jul-18 21:47 47.198797 -122.682325 331 14372ft 411kts
17-Jul-18 21:48 47.279312 -122.792079 288 16122ft 412kts
17-Jul-18 21:49 47.267129 -122.955081 248 17730ft 418kts
17-Jul-18 21:50 47.198591 -123.090867 218 19067ft 429kts
17-Jul-18 21:51 47.101481 -123.191112 207 19304ft 435kts
17-Jul-18 21:52 46.984687 -123.209231 182 20542ft 450kts
17-Jul-18 21:53 46.869455 -123.199132 177 21557ft 461kts
17-Jul-18 21:54 46.749359 -123.183463 179 22644ft 466kts
17-Jul-18 21:55 46.621457 -123.169136 179 23677ft 471kts
17-Jul-18 21:56 46.491953 -123.154875 180 24825ft 471kts
17-Jul-18 21:57 46.364806 -123.140941 180 26171ft 467kts
17-Jul-18 21:58 46.237328 -123.127064 180 27205ft 463kts
17-Jul-18 21:59 46.113705 -123.113673 180 27214ft 463kts
17-Jul-18 22:00 45.986104 -123.099881 180 27211ft 463kts
17-Jul-18 22:01 45.883268 -123.088879 180 27189ft 463kts
17-Jul-18 22:02 45.803134 -123.080386 180 27145ft 463kts
17-Jul-18 22:03 45.675464 -123.066738 180 27119ft 464kts
17-Jul-18 22:04 45.547066 -123.053088 180 27157ft 465kts
17-Jul-18 22:05 45.418627 -123.039501 180 27161ft 464kts
17-Jul-18 22:06 45.290143 -123.025977 180 27151ft 463kts
17-Jul-18 22:07 45.162058 -123.012559 180 27142ft 462kts
17-Jul-18 22:08 45.034134 -122.999216 181 27158ft 461kts
17-Jul-18 22:09 44.907705 -122.986075 182 27177ft 455kts
17-Jul-18 22:10 44.792204 -122.974146 182 27132ft 453kts
17-Jul-18 22:11 44.667080 -122.961284 182 26379ft 454kts
17-Jul-18 22:12 44.542838 -122.949367 186 23859ft 446kts
17-Jul-18 22:13 44.430403 -122.995869 211 21395ft 412kts
17-Jul-18 22:14 44.328582 -123.070806 211 19884ft 424kts
17-Jul-18 22:15 44.225544 -123.146325 210 17069ft 415kts
17-Jul-18 22:16 44.126337 -123.219964 215 14757ft 389kts
17-Jul-18 22:17 44.050167 -123.319217 225 14008ft 373kts
17-Jul-18 22:18 43.988491 -123.402869 225 13489ft 371kts
17-Jul-18 22:19 43.917551 -123.498708 225 12816ft 334kts
17-Jul-18 22:20 43.850225 -123.589396 225 11934ft 291kts
17-Jul-18 22:21 43.793532 -123.665678 225 11140ft 283kts
17-Jul-18 22:22 43.737409 -123.740981 225 10354ft 281kts
17-Jul-18 22:23 43.681335 -123.815964 226 10022ft 280kts
17-Jul-18 22:24 43.635000 -123.877753 226 10030ft 278kts
17-Jul-18 22:25 43.579615 -123.951426 226 10029ft 278kts
17-Jul-18 22:26 43.524094 -124.025059 226 9635ft 273kts
17-Jul-18 22:27 43.474290 -124.090763 227 8556ft 232kts
17-Jul-18 22:28 43.420161 -124.162270 227 6524ft 231kts
17-Jul-18 22:29 43.377562 -124.206347 219 5969ft 233kts
17-Jul-18 22:30 43.325436 -124.258388 219 5329ft 227kts
17-Jul-18 22:31 43.279879 -124.309124 242 4743ft 203kts
17-Jul-18 22:32 43.278741 -124.379860 303 4131ft 189kts
17-Jul-18 22:33 43.314838 -124.411294 344 3286ft 141kts
17-Jul-18 22:34 43.350612 -124.402190 33 2408ft 136kts
17-Jul-18 22:35 43.373187 -124.360815 56 1690ft 136kts
17-Jul-18 22:36 43.391825 -124.315925 56 962ft 135kts
17-Jul-18 22:37 43.410208 -124.271358 56 239ft 133kts
17-Jul-18 22:38 43.421638 -124.243597 82 13ft 13kts
17-Jul-18 22:39 43.420461 -124.243491 240 13ft 7kts
17-Jul-18 22:40 43.418237 -124.248923 239 13ft 15kts
17-Jul-18 22:41 43.416848 -124.249587 210 13ft 0kts
17-Jul-18 22:42 43.416848 -124.249587 210 13ft 0kts

Navigation Log

Ident Type
Flight plan parsing failed, navigation log unavailable